createdAt,value
2018-02-18T00:00:43.927Z,34.39
2018-02-18T00:01:53.178Z,34.49
2018-02-18T00:03:01.927Z,34.3
2018-02-18T00:04:10.950Z,34.3
2018-02-18T00:05:20.468Z,34.3
2018-02-18T00:06:29.708Z,34.3
2018-02-18T00:07:38.674Z,34.39
2018-02-18T00:08:48.214Z,34.2
2018-02-18T00:09:57.179Z,34.3
2018-02-18T00:11:06.452Z,34.3
2018-02-18T00:12:15.420Z,34.3
2018-02-18T00:13:24.704Z,34.39
2018-02-18T00:14:33.424Z,34.39
2018-02-18T00:15:42.465Z,34.39
2018-02-18T00:16:51.429Z,34.3
2018-02-18T00:18:00.405Z,34.2
2018-02-18T00:19:09.914Z,34.39
2018-02-18T00:20:19.228Z,34.3
2018-02-18T00:21:28.248Z,34.39
2018-02-18T00:22:37.815Z,34.3
2018-02-18T00:23:46.793Z,34.3
2018-02-18T00:24:56.812Z,34.39
2018-02-18T00:26:06.062Z,34.39
2018-02-18T00:27:14.916Z,34.39
2018-02-18T00:28:24.221Z,34.3
2018-02-18T00:29:33.486Z,34.3
2018-02-18T00:30:42.480Z,34.39
2018-02-18T00:31:51.705Z,34.39
2018-02-18T00:33:00.475Z,34.2
2018-02-18T00:34:09.756Z,34.39
2018-02-18T00:35:18.744Z,34.39
2018-02-18T00:36:27.736Z,34.39
2018-02-18T00:37:36.689Z,34.3
2018-02-18T00:38:45.698Z,34.3
2018-02-18T00:39:54.660Z,34.2
2018-02-18T00:41:04.220Z,34.3
2018-02-18T00:42:13.751Z,34.39
2018-02-18T00:43:22.758Z,34.3
2018-02-18T00:44:32.028Z,34.49
2018-02-18T00:45:41.519Z,34.39
2018-02-18T00:46:50.572Z,34.2
2018-02-18T00:47:59.276Z,34.3
2018-02-18T00:49:08.158Z,34.3
2018-02-18T00:50:17.442Z,34.3
2018-02-18T00:51:26.145Z,34.3
2018-02-18T00:52:35.668Z,34.01
2018-02-18T00:53:44.956Z,34.49
2018-02-18T00:54:54.151Z,34.49
2018-02-18T00:56:02.848Z,34.68
2018-02-18T00:57:12.158Z,34.49
2018-02-18T00:58:21.463Z,34.01
2018-02-18T00:59:30.676Z,34.49
2018-02-18T01:00:39.661Z,34.01
2018-02-18T01:01:48.614Z,34.39
2018-02-18T01:02:59.057Z,34.49
2018-02-18T01:04:07.765Z,34.59
2018-02-18T01:05:17.000Z,34.59
2018-02-18T01:06:25.993Z,34.59
2018-02-18T01:07:35.492Z,34.49
2018-02-18T01:08:44.980Z,34.49
2018-02-18T01:09:54.219Z,34.11
2018-02-18T01:11:03.428Z,34.59
2018-02-18T01:12:12.384Z,34.47
2018-02-18T01:13:22.163Z,34.38
2018-02-18T01:14:31.393Z,34.49
2018-02-18T01:15:40.370Z,34.57
2018-02-18T01:16:49.425Z,34.57
2018-02-18T01:17:58.397Z,34.49
2018-02-18T01:19:07.941Z,34.39
2018-02-18T01:20:16.887Z,34.59
2018-02-18T01:21:26.376Z,34.59
2018-02-18T01:22:35.181Z,34.47
2018-02-18T01:23:44.737Z,34.49
2018-02-18T01:24:53.722Z,34.47
2018-02-18T01:26:02.670Z,34.59
2018-02-18T01:27:11.686Z,34.3
2018-02-18T01:28:20.955Z,34.57
2018-02-18T01:29:30.181Z,34.38
2018-02-18T01:30:39.415Z,34.49
2018-02-18T01:31:48.388Z,34.49
2018-02-18T01:32:57.330Z,34.59
2018-02-18T01:34:06.273Z,34.59
2018-02-18T01:35:15.222Z,34.49
2018-02-18T01:36:24.170Z,34.01
2018-02-18T01:37:33.140Z,34.59
2018-02-18T01:38:42.084Z,34.47
2018-02-18T01:39:51.048Z,34.39
2018-02-18T01:41:00.268Z,34.47
2018-02-18T01:42:09.497Z,34.39
2018-02-18T01:43:18.710Z,34.59
2018-02-18T01:44:27.994Z,34.47
2018-02-18T01:45:37.534Z,34.47
2018-02-18T01:46:46.463Z,34.49
2018-02-18T01:47:55.428Z,34.47
2018-02-18T01:49:04.645Z,34.49
2018-02-18T01:50:13.402Z,34.57
2018-02-18T01:51:22.675Z,34.47
2018-02-18T01:52:31.617Z,34.47
2018-02-18T01:53:40.589Z,33.99
2018-02-18T01:54:50.072Z,34.19
2018-02-18T01:55:59.280Z,34.28
2018-02-18T01:57:08.502Z,34.47
2018-02-18T01:58:17.472Z,34.19
2018-02-18T01:59:26.418Z,34.47
2018-02-18T02:00:35.397Z,34.19
2018-02-18T02:01:44.870Z,34.19
2018-02-18T02:02:55.529Z,34.28
2018-02-18T02:04:05.092Z,34.28
2018-02-18T02:05:14.294Z,34.09
2018-02-18T02:06:23.503Z,34.28
2018-02-18T02:07:33.011Z,34.28
2018-02-18T02:08:42.232Z,34.28
2018-02-18T02:09:51.454Z,34.28
2018-02-18T02:11:00.440Z,34.19
2018-02-18T02:12:09.182Z,34.28
2018-02-18T02:13:18.428Z,34.28
2018-02-18T02:14:27.391Z,34.28
2018-02-18T02:15:36.336Z,34.28
2018-02-18T02:16:45.337Z,34.19
2018-02-18T02:17:54.070Z,34.28
2018-02-18T02:19:03.566Z,34.28
2018-02-18T02:20:13.354Z,34.28
2018-02-18T02:21:22.583Z,34.28
2018-02-18T02:22:31.860Z,34.38
2018-02-18T02:23:40.858Z,34.28
2018-02-18T02:24:49.837Z,34.28
2018-02-18T02:25:59.064Z,34.38
2018-02-18T02:27:08.053Z,34.28
2018-02-18T02:28:16.766Z,34.28
2018-02-18T02:29:26.236Z,34.09
2018-02-18T02:30:35.478Z,34.28
2018-02-18T02:31:44.965Z,34.38
2018-02-18T02:32:54.740Z,34.28
2018-02-18T02:34:03.715Z,34.28
2018-02-18T02:35:12.970Z,34.28
2018-02-18T02:36:21.943Z,34.28
2018-02-18T02:37:31.169Z,34.28
2018-02-18T02:38:40.465Z,34.38
2018-02-18T02:39:49.676Z,34.28
2018-02-18T02:40:59.445Z,34.38
2018-02-18T02:42:08.468Z,34.28
2018-02-18T02:43:17.946Z,34.28
2018-02-18T02:44:26.920Z,34.38
2018-02-18T02:45:35.924Z,34.38
2018-02-18T02:46:45.194Z,34.28
2018-02-18T02:47:55.007Z,34.38
2018-02-18T02:49:04.214Z,34.38
2018-02-18T02:50:13.988Z,34.19
2018-02-18T02:51:23.472Z,34.09
2018-02-18T02:52:32.149Z,34.19
2018-02-18T02:53:41.103Z,34.28
2018-02-18T02:54:50.632Z,33.99
2018-02-18T02:55:59.581Z,34.19
2018-02-18T02:57:09.613Z,34.19
2018-02-18T02:58:19.667Z,34.19
2018-02-18T02:59:28.904Z,34.28
2018-02-18T03:00:38.638Z,34.19
2018-02-18T03:01:47.882Z,34.19
2018-02-18T03:02:56.846Z,34.19
2018-02-18T03:04:06.335Z,33.99
2018-02-18T03:05:15.319Z,34.09
2018-02-18T03:06:24.574Z,34.09
2018-02-18T03:07:33.285Z,34.19
2018-02-18T03:08:41.979Z,34.09
2018-02-18T03:09:51.213Z,34.19
2018-02-18T03:11:00.445Z,34.09
2018-02-18T03:12:09.686Z,34.09
2018-02-18T03:13:18.657Z,33.99
2018-02-18T03:14:27.617Z,33.99
2018-02-18T03:15:36.868Z,34.09
2018-02-18T03:16:45.578Z,34.09
2018-02-18T03:17:54.790Z,33.99
2018-02-18T03:19:03.475Z,34.09
2018-02-18T03:20:12.974Z,34.09
2018-02-18T03:21:21.938Z,34.09
2018-02-18T03:22:30.913Z,34.09
2018-02-18T03:23:39.884Z,33.99
2018-02-18T03:24:48.870Z,33.99
2018-02-18T03:25:58.073Z,33.99
2018-02-18T03:27:07.356Z,34.09
2018-02-18T03:28:16.867Z,34.19
2018-02-18T03:29:25.554Z,33.99
2018-02-18T03:30:34.774Z,33.99
2018-02-18T03:31:44.101Z,33.99
2018-02-18T03:32:52.796Z,33.99
2018-02-18T03:34:02.038Z,33.99
2018-02-18T03:35:11.001Z,33.99
2018-02-18T03:36:20.273Z,34.09
2018-02-18T03:37:29.267Z,34.09
2018-02-18T03:38:38.475Z,34.09
2018-02-18T03:39:47.433Z,34.09
2018-02-18T03:40:56.122Z,34.19
2018-02-18T03:42:04.829Z,34.09
2018-02-18T03:43:13.510Z,34.09
2018-02-18T03:44:22.991Z,34.09
2018-02-18T03:45:32.253Z,34.09
2018-02-18T03:46:41.718Z,34.09
2018-02-18T03:47:50.432Z,33.99
2018-02-18T03:48:59.634Z,34.09
2018-02-18T03:50:08.593Z,34.19
2018-02-18T03:51:18.072Z,34.09
2018-02-18T03:52:27.821Z,34.09
2018-02-18T03:53:36.775Z,34.09
2018-02-18T03:54:45.721Z,34.09
2018-02-18T03:55:54.400Z,34.19
2018-02-18T03:57:03.118Z,33.99
2018-02-18T03:58:12.088Z,33.99
2018-02-18T03:59:21.027Z,34.09
2018-02-18T04:00:30.005Z,33.99
2018-02-18T04:01:39.236Z,34.09
2018-02-18T04:02:48.700Z,33.99
2018-02-18T04:03:57.912Z,34.09
2018-02-18T04:05:06.892Z,34.09
2018-02-18T04:06:15.851Z,33.99
2018-02-18T04:07:24.528Z,34.09
2018-02-18T04:08:33.744Z,34.09
2018-02-18T04:09:42.972Z,33.98
2018-02-18T04:10:52.175Z,34.07
2018-02-18T04:12:01.936Z,34.09
2018-02-18T04:13:11.151Z,34.09
2018-02-18T04:14:20.424Z,34.09
2018-02-18T04:15:29.612Z,33.99
2018-02-18T04:16:38.599Z,34.09
2018-02-18T04:17:48.259Z,33.99
2018-02-18T04:18:57.503Z,34.19
2018-02-18T04:20:06.755Z,34.19
2018-02-18T04:21:15.982Z,34.09
2018-02-18T04:22:24.676Z,34.28
2018-02-18T04:23:33.893Z,34.28
2018-02-18T04:24:42.587Z,34.17
2018-02-18T04:25:51.289Z,34.28
2018-02-18T04:27:00.498Z,34.19
2018-02-18T04:28:09.734Z,34.19
2018-02-18T04:29:19.275Z,34.28
2018-02-18T04:30:28.267Z,34.28
2018-02-18T04:31:36.955Z,33.7
2018-02-18T04:32:45.903Z,34.28
2018-02-18T04:33:54.847Z,33.8
2018-02-18T04:35:04.370Z,34.28
2018-02-18T04:36:13.350Z,34.19
2018-02-18T04:37:22.569Z,34.19
2018-02-18T04:38:31.512Z,34.28
2018-02-18T04:39:40.242Z,33.69
2018-02-18T04:40:49.763Z,33.7
2018-02-18T04:41:59.266Z,33.7
2018-02-18T04:43:08.507Z,34.19
2018-02-18T04:44:17.744Z,33.78
2018-02-18T04:45:26.732Z,33.8
2018-02-18T04:46:35.720Z,34.19
2018-02-18T04:47:44.698Z,33.78
2018-02-18T04:48:54.192Z,33.8
2018-02-18T04:50:03.428Z,33.8
2018-02-18T04:51:12.379Z,33.8
2018-02-18T04:52:21.350Z,33.9
2018-02-18T04:53:30.202Z,33.8
2018-02-18T04:54:39.430Z,33.8
2018-02-18T04:55:48.393Z,33.78
2018-02-18T04:56:57.597Z,33.88
2018-02-18T04:58:06.836Z,33.9
2018-02-18T04:59:16.314Z,33.78
2018-02-18T05:00:25.028Z,33.88
2018-02-18T05:01:34.792Z,33.98
2018-02-18T05:02:44.037Z,33.99
2018-02-18T05:03:53.536Z,33.98
2018-02-18T05:05:02.492Z,33.98
2018-02-18T05:06:11.697Z,33.98
2018-02-18T05:07:21.205Z,33.99
2018-02-18T05:08:30.405Z,33.88
2018-02-18T05:09:39.653Z,33.98
2018-02-18T05:10:48.626Z,33.88
2018-02-18T05:11:57.583Z,33.98
2018-02-18T05:13:06.530Z,34.09
2018-02-18T05:14:16.040Z,33.88
2018-02-18T05:15:25.067Z,33.88
2018-02-18T05:16:34.277Z,33.98
2018-02-18T05:17:43.241Z,33.88
2018-02-18T05:18:52.187Z,33.88
2018-02-18T05:20:01.132Z,33.88
2018-02-18T05:21:10.165Z,33.88
2018-02-18T05:22:19.114Z,33.99
2018-02-18T05:23:28.328Z,33.88
2018-02-18T05:24:37.041Z,34.07
2018-02-18T05:25:46.268Z,34.07
2018-02-18T05:26:54.960Z,33.88
2018-02-18T05:28:03.705Z,34.07
2018-02-18T05:29:13.176Z,33.69
2018-02-18T05:30:22.394Z,33.88
2018-02-18T05:31:31.624Z,33.88
2018-02-18T05:32:40.857Z,33.88
2018-02-18T05:33:49.842Z,33.78
2018-02-18T05:34:59.328Z,33.78
2018-02-18T05:36:08.357Z,33.78
2018-02-18T05:37:17.706Z,33.88
2018-02-18T05:38:26.388Z,33.88
2018-02-18T05:39:35.848Z,33.78
2018-02-18T05:40:45.051Z,33.78
2018-02-18T05:41:54.333Z,33.69
2018-02-18T05:43:03.578Z,33.69
2018-02-18T05:44:12.343Z,33.78
2018-02-18T05:45:21.880Z,33.69
2018-02-18T05:46:31.083Z,33.69
2018-02-18T05:47:40.060Z,33.69
2018-02-18T05:48:49.282Z,33.69
2018-02-18T05:49:58.231Z,33.69
2018-02-18T05:51:06.911Z,33.59
2018-02-18T05:52:16.138Z,33.69
2018-02-18T05:53:25.081Z,33.78
2018-02-18T05:54:34.070Z,33.78
2018-02-18T05:55:42.766Z,33.78
2018-02-18T05:56:52.005Z,33.59
2018-02-18T05:58:00.949Z,33.59
2018-02-18T05:59:10.450Z,33.78
2018-02-18T06:00:19.401Z,33.78
2018-02-18T06:01:28.892Z,33.78
2018-02-18T06:02:37.621Z,33.59
2018-02-18T06:03:46.579Z,33.78
2018-02-18T06:04:55.791Z,33.59
2018-02-18T06:06:05.272Z,33.69
2018-02-18T06:07:14.282Z,33.5
2018-02-18T06:08:23.519Z,33.59
2018-02-18T06:09:32.506Z,33.5
2018-02-18T06:10:42.024Z,33.5
2018-02-18T06:11:51.508Z,33.5
2018-02-18T06:13:00.227Z,33.59
2018-02-18T06:14:09.186Z,33.59
2018-02-18T06:15:18.401Z,33.69
2018-02-18T06:16:28.421Z,33.69
2018-02-18T06:17:37.898Z,33.78
2018-02-18T06:18:47.161Z,33.69
2018-02-18T06:19:56.881Z,33.69
2018-02-18T06:21:06.090Z,33.78
2018-02-18T06:22:15.311Z,33.69
2018-02-18T06:23:24.787Z,33.69
2018-02-18T06:24:34.056Z,33.59
2018-02-18T06:25:42.775Z,33.59
2018-02-18T06:26:51.712Z,33.4
2018-02-18T06:28:00.685Z,33.59
2018-02-18T06:29:10.171Z,33.5
2018-02-18T06:30:18.869Z,33.5
2018-02-18T06:31:28.101Z,33.4
2018-02-18T06:32:37.339Z,33.4
2018-02-18T06:33:46.597Z,33.59
2018-02-18T06:34:55.568Z,33.5
2018-02-18T06:36:04.841Z,33.59
2018-02-18T06:37:14.376Z,33.31
2018-02-18T06:38:23.662Z,33.59
2018-02-18T06:39:33.146Z,33.01
2018-02-18T06:40:42.389Z,33.5
2018-02-18T06:41:51.066Z,33.5
2018-02-18T06:43:00.280Z,33.59
2018-02-18T06:44:09.526Z,33.5
2018-02-18T06:45:18.218Z,33.5
2018-02-18T06:46:27.695Z,33.59
2018-02-18T06:47:36.745Z,33.5
2018-02-18T06:48:46.229Z,33.11
2018-02-18T06:49:54.910Z,33.5
2018-02-18T06:51:03.854Z,33.31
2018-02-18T06:52:12.548Z,33.4
2018-02-18T06:53:21.269Z,33.31
2018-02-18T06:54:29.951Z,33.31
2018-02-18T06:55:38.644Z,33.31
2018-02-18T06:56:47.900Z,33.31
2018-02-18T06:57:57.108Z,33.31
2018-02-18T06:59:06.071Z,33.31
2018-02-18T07:00:15.280Z,33.21
2018-02-18T07:01:24.249Z,33.21
2018-02-18T07:02:33.460Z,33.31
2018-02-18T07:03:42.682Z,33.21
2018-02-18T07:04:51.661Z,33.11
2018-02-18T07:06:01.149Z,33.11
2018-02-18T07:07:10.371Z,33.11
2018-02-18T07:08:19.324Z,33.11
2018-02-18T07:09:28.024Z,33.11
2018-02-18T07:10:36.736Z,33.01
2018-02-18T07:11:45.706Z,33.01
2018-02-18T07:12:54.440Z,33.01
2018-02-18T07:14:03.110Z,32.73
2018-02-18T07:15:12.322Z,33.11
2018-02-18T07:16:21.267Z,33.11
2018-02-18T07:17:30.210Z,33.11
2018-02-18T07:18:39.508Z,33.31
2018-02-18T07:19:49.025Z,33.11
2018-02-18T07:20:58.281Z,33.11
2018-02-18T07:22:07.530Z,33.11
2018-02-18T07:23:16.504Z,33.31
2018-02-18T07:24:25.448Z,33.11
2018-02-18T07:25:34.678Z,33.31
2018-02-18T07:26:43.393Z,33.21
2018-02-18T07:27:52.648Z,33.21
2018-02-18T07:29:02.154Z,33.21
2018-02-18T07:30:11.375Z,33.11
2018-02-18T07:31:20.598Z,33.01
2018-02-18T07:32:29.285Z,33.01
2018-02-18T07:33:37.998Z,32.92
2018-02-18T07:34:47.236Z,32.92
2018-02-18T07:35:56.477Z,32.82
2018-02-18T07:37:05.675Z,32.92
2018-02-18T07:38:14.989Z,32.92
2018-02-18T07:39:23.933Z,32.92
2018-02-18T07:40:32.687Z,33.11
2018-02-18T07:41:41.658Z,32.92
2018-02-18T07:42:50.673Z,33.01
2018-02-18T07:43:59.942Z,32.92
2018-02-18T07:45:09.434Z,32.82
2018-02-18T07:46:18.704Z,33.01
2018-02-18T07:47:28.189Z,33.01
2018-02-18T07:48:37.438Z,32.92
2018-02-18T07:49:46.389Z,33.01
2018-02-18T07:50:55.337Z,33.11
2018-02-18T07:52:04.567Z,33.01
2018-02-18T07:53:13.526Z,32.92
2018-02-18T07:54:22.720Z,32.73
2018-02-18T07:55:31.973Z,32.73
2018-02-18T07:56:40.909Z,32.82
2018-02-18T07:57:49.607Z,32.64
2018-02-18T07:58:58.820Z,32.82
2018-02-18T08:00:08.299Z,32.73
2018-02-18T08:01:17.308Z,32.82
2018-02-18T08:02:26.290Z,32.82
2018-02-18T08:03:35.261Z,32.64
2018-02-18T08:04:44.201Z,32.73
2018-02-18T08:05:53.682Z,32.64
2018-02-18T08:07:02.380Z,32.64
2018-02-18T08:08:11.075Z,32.64
2018-02-18T08:09:19.764Z,32.73
2018-02-18T08:10:28.737Z,32.84
2018-02-18T08:11:37.969Z,32.75
2018-02-18T08:12:47.216Z,32.36
2018-02-18T08:13:55.906Z,32.55
2018-02-18T08:15:05.401Z,32.46
2018-02-18T08:16:14.409Z,32.46
2018-02-18T08:17:23.095Z,32.17
2018-02-18T08:18:32.590Z,31.98
2018-02-18T08:19:41.333Z,31.98
2018-02-18T08:20:50.172Z,31.9
2018-02-18T08:21:58.920Z,31.88
2018-02-18T08:23:08.567Z,31.8
2018-02-18T08:24:19.014Z,31.7
2018-02-18T08:25:28.552Z,31.51
2018-02-18T08:26:38.628Z,31.41
2018-02-18T08:27:47.358Z,31.51
2018-02-18T08:28:57.159Z,31.32
2018-02-18T08:30:06.417Z,31.51
2018-02-18T08:31:16.493Z,31.32
2018-02-18T08:32:25.488Z,31.32
2018-02-18T08:33:34.184Z,31.13
2018-02-18T08:34:43.708Z,31.24
2018-02-18T08:35:52.587Z,31.15
2018-02-18T08:37:01.862Z,31.05
2018-02-18T08:38:11.045Z,30.95
2018-02-18T08:39:20.027Z,30.95
2018-02-18T08:40:29.677Z,30.85
2018-02-18T08:41:38.734Z,30.76
2018-02-18T08:42:47.655Z,30.85
2018-02-18T08:43:57.066Z,30.76
2018-02-18T08:45:06.092Z,30.76
2018-02-18T08:46:15.558Z,30.66
2018-02-18T08:47:24.790Z,30.66
2018-02-18T08:48:33.540Z,30.47
2018-02-18T08:49:42.459Z,30.68
2018-02-18T08:50:51.943Z,30.68
2018-02-18T08:52:00.925Z,30.39
2018-02-18T08:53:09.661Z,30.29
2018-02-18T08:54:18.614Z,30.29
2018-02-18T08:55:27.571Z,30.39
2018-02-18T08:56:36.567Z,29.91
2018-02-18T08:57:45.802Z,30
2018-02-18T08:58:54.781Z,30
2018-02-18T09:00:03.513Z,30.1
2018-02-18T09:01:13.017Z,30.02
2018-02-18T09:02:22.569Z,30.11
2018-02-18T09:03:32.071Z,29.83
2018-02-18T09:04:41.293Z,29.73
2018-02-18T09:05:49.996Z,29.73
2018-02-18T09:06:58.981Z,29.63
2018-02-18T09:08:08.226Z,29.93
2018-02-18T09:09:17.967Z,29.54
2018-02-18T09:10:26.937Z,29.55
2018-02-18T09:11:35.897Z,29.27
2018-02-18T09:12:44.961Z,29.46
2018-02-18T09:13:53.917Z,29.55
2018-02-18T09:15:03.400Z,29.46
2018-02-18T09:16:12.882Z,29.17
2018-02-18T09:17:21.933Z,29.08
2018-02-18T09:18:30.936Z,29.28
2018-02-18T09:19:39.659Z,28.89
2018-02-18T09:20:48.621Z,28.89
2018-02-18T09:21:58.634Z,28.81
2018-02-18T09:23:07.333Z,28.91
2018-02-18T09:24:16.831Z,28.62
2018-02-18T09:25:26.620Z,28.72
2018-02-18T09:26:35.319Z,28.81
2018-02-18T09:27:44.584Z,28.62
2018-02-18T09:28:53.819Z,28.63
2018-02-18T09:30:03.107Z,28.63
2018-02-18T09:31:12.600Z,28.52
2018-02-18T09:32:22.122Z,28.63
2018-02-18T09:33:31.349Z,28.73
2018-02-18T09:34:40.394Z,28.63
2018-02-18T09:35:49.938Z,28.53
2018-02-18T09:36:59.760Z,28.53
2018-02-18T09:38:09.010Z,28.53
2018-02-18T09:39:18.740Z,28.63
2018-02-18T09:40:28.224Z,28.53
2018-02-18T09:41:37.196Z,28.53
2018-02-18T09:42:46.411Z,28.63
2018-02-18T09:43:55.624Z,28.73
2018-02-18T09:45:05.366Z,28.73
2018-02-18T09:46:14.056Z,28.73
2018-02-18T09:47:23.286Z,28.73
2018-02-18T09:48:32.522Z,28.63
2018-02-18T09:49:41.998Z,28.63
2018-02-18T09:50:51.226Z,28.53
2018-02-18T09:51:59.952Z,28.83
2018-02-18T09:53:09.728Z,28.73
2018-02-18T09:54:18.948Z,29.02
2018-02-18T09:55:28.428Z,29.11
2018-02-18T09:56:37.916Z,29.58
2018-02-18T09:57:47.214Z,30.05
2018-02-18T09:58:56.723Z,30.63
2018-02-18T10:00:06.014Z,31
2018-02-18T10:01:14.981Z,31.46
2018-02-18T10:02:23.929Z,31.85
2018-02-18T10:03:33.178Z,32.31
2018-02-18T10:04:42.400Z,32.87
2018-02-18T10:05:51.075Z,33.05
2018-02-18T10:07:00.810Z,33.53
2018-02-18T10:08:09.800Z,33.7
2018-02-18T10:09:18.766Z,34.28
2018-02-18T10:10:27.488Z,34.27
2018-02-18T10:11:36.169Z,34.92
2018-02-18T10:12:45.408Z,34.92
2018-02-18T10:13:54.718Z,35.02
2018-02-18T10:15:03.996Z,35.38
2018-02-18T10:16:12.998Z,35.67
2018-02-18T10:17:22.032Z,35.67
2018-02-18T10:18:30.984Z,36.22
2018-02-18T10:19:40.247Z,36.13
2018-02-18T10:20:49.483Z,36.32
2018-02-18T10:21:58.762Z,36.51
2018-02-18T10:23:08.083Z,36.49
2018-02-18T10:24:17.396Z,36.79
2018-02-18T10:25:26.795Z,36.69
2018-02-18T10:26:35.785Z,36.88
2018-02-18T10:27:44.803Z,36.67
2018-02-18T10:28:53.887Z,36.96
2018-02-18T10:30:05.447Z,37.05
2018-02-18T10:31:14.658Z,37.24
2018-02-18T10:32:23.948Z,37.34
2018-02-18T10:33:33.249Z,37.13
2018-02-18T10:34:42.921Z,37.7
2018-02-18T10:35:52.570Z,37.41
2018-02-18T10:37:01.295Z,37.7
2018-02-18T10:38:10.552Z,37.61
2018-02-18T10:39:19.653Z,37.51
2018-02-18T10:40:28.645Z,37.49
2018-02-18T10:41:37.950Z,37.49
2018-02-18T10:42:47.182Z,37.4
2018-02-18T10:43:55.877Z,37.49
2018-02-18T10:45:06.065Z,37.59
2018-02-18T10:46:16.026Z,37.49
2018-02-18T10:47:25.531Z,37.49
2018-02-18T10:48:34.509Z,37.57
2018-02-18T10:49:43.504Z,37.68
2018-02-18T10:50:53.313Z,37.66
2018-02-18T10:52:02.547Z,37.76
2018-02-18T10:53:11.514Z,37.76
2018-02-18T10:54:20.326Z,37.76
2018-02-18T10:55:29.300Z,37.76
2018-02-18T10:56:38.798Z,37.76
2018-02-18T10:57:47.854Z,37.95
2018-02-18T10:58:58.064Z,37.66
2018-02-18T11:00:07.583Z,37.76
2018-02-18T11:01:16.605Z,37.76
2018-02-18T11:02:25.393Z,37.66
2018-02-18T11:03:34.356Z,37.66
2018-02-18T11:04:43.688Z,37.76
2018-02-18T11:05:53.316Z,37.65
2018-02-18T11:07:03.456Z,37.48
2018-02-18T11:08:12.730Z,37.36
2018-02-18T11:09:22.255Z,37.36
2018-02-18T11:10:31.541Z,37.36
2018-02-18T11:11:40.529Z,37.55
2018-02-18T11:12:50.086Z,37.36
2018-02-18T11:13:59.554Z,37.46
2018-02-18T11:15:08.523Z,37.46
2018-02-18T11:16:18.026Z,37.55
2018-02-18T11:17:26.710Z,37.65
2018-02-18T11:18:35.957Z,37.26
2018-02-18T11:19:45.257Z,37.55
2018-02-18T11:20:54.755Z,37.65
2018-02-18T11:22:04.032Z,37.55
2018-02-18T11:23:13.018Z,37.36
2018-02-18T11:24:22.042Z,37.46
2018-02-18T11:25:31.063Z,37.26
2018-02-18T11:26:39.757Z,37.36
2018-02-18T11:27:48.997Z,37.36
2018-02-18T11:28:58.248Z,37.36
2018-02-18T11:30:07.235Z,37.36
2018-02-18T11:31:16.466Z,37.26
2018-02-18T11:32:25.425Z,37.26
2018-02-18T11:33:34.986Z,36.98
2018-02-18T11:34:44.205Z,36.88
2018-02-18T11:35:53.176Z,36.33
2018-02-18T11:37:03.054Z,35.94
2018-02-18T11:38:12.065Z,35.47
2018-02-18T11:39:21.068Z,35.28
2018-02-18T11:40:30.065Z,34.72
2018-02-18T11:41:39.054Z,34.36
2018-02-18T11:42:48.027Z,34.36
2018-02-18T11:43:57.254Z,33.97
2018-02-18T11:45:06.980Z,33.8
2018-02-18T11:46:16.522Z,33.32
2018-02-18T11:47:25.459Z,33.03
2018-02-18T11:48:34.721Z,32.57
2018-02-18T11:49:43.707Z,32.47
2018-02-18T11:50:52.952Z,32.09
2018-02-18T11:52:01.921Z,31.92
2018-02-18T11:53:10.891Z,31.63
2018-02-18T11:54:20.179Z,31.43
2018-02-18T11:55:29.456Z,31.16
2018-02-18T11:56:38.401Z,31.07
2018-02-18T11:57:47.421Z,31.07
2018-02-18T11:58:56.945Z,30.7
2018-02-18T12:00:06.458Z,30.51
2018-02-18T12:01:15.939Z,30.6
2018-02-18T12:02:24.945Z,30.43
2018-02-18T12:03:34.206Z,30.33
2018-02-18T12:04:43.204Z,30.23
2018-02-18T12:05:52.433Z,29.85
2018-02-18T12:07:02.171Z,30.04
2018-02-18T12:08:11.138Z,29.85
2018-02-18T12:09:20.128Z,29.67
2018-02-18T12:10:29.147Z,29.86
2018-02-18T12:11:38.102Z,29.38
2018-02-18T12:12:47.082Z,29.48
2018-02-18T12:13:56.305Z,29.38
2018-02-18T12:15:05.567Z,29.69
2018-02-18T12:16:14.330Z,29.21
2018-02-18T12:17:23.064Z,29.4
2018-02-18T12:18:33.108Z,29.3
2018-02-18T12:19:42.390Z,29.02
2018-02-18T12:20:51.882Z,29.21
2018-02-18T12:22:00.845Z,29.13
2018-02-18T12:23:10.355Z,29.13
2018-02-18T12:24:19.580Z,29.22
2018-02-18T12:25:29.070Z,29.13
2018-02-18T12:26:37.765Z,28.74
2018-02-18T12:27:46.990Z,28.84
2018-02-18T12:28:55.681Z,28.74
2018-02-18T12:30:04.951Z,28.84
2018-02-18T12:31:13.910Z,28.84
2018-02-18T12:32:23.135Z,28.84
2018-02-18T12:33:32.129Z,29.41
2018-02-18T12:34:41.616Z,29.41
2018-02-18T12:35:50.556Z,29.41
2018-02-18T12:36:59.810Z,28.74
2018-02-18T12:38:08.766Z,28.64
2018-02-18T12:39:17.793Z,29.33
2018-02-18T12:40:26.771Z,29.13
2018-02-18T12:41:35.984Z,29.13
2018-02-18T12:42:44.980Z,29.13
2018-02-18T12:43:53.981Z,29.13
2018-02-18T12:45:03.182Z,29.22
2018-02-18T12:46:11.942Z,29.13
2018-02-18T12:47:20.936Z,29.03
2018-02-18T12:48:30.931Z,29.03
2018-02-18T12:49:39.918Z,29.03
2018-02-18T12:50:49.177Z,29.32
2018-02-18T12:51:58.409Z,29.22
2018-02-18T12:53:07.376Z,29.22
2018-02-18T12:54:17.147Z,29.22
2018-02-18T12:55:26.119Z,29.13
2018-02-18T12:56:35.071Z,29.8
2018-02-18T12:57:44.211Z,29.8
2018-02-18T12:58:53.086Z,29.51
2018-02-18T13:00:02.040Z,29.41
2018-02-18T13:01:11.544Z,29.22
2018-02-18T13:02:20.233Z,29.7
2018-02-18T13:03:29.739Z,29.51
2018-02-18T13:04:38.710Z,29.51
2018-02-18T13:05:48.452Z,29.61
2018-02-18T13:06:57.668Z,29.32
2018-02-18T13:08:06.969Z,29.41
2018-02-18T13:09:16.214Z,29.99
2018-02-18T13:10:24.918Z,29.8
2018-02-18T13:11:34.143Z,29.8
2018-02-18T13:12:42.826Z,29.8
2018-02-18T13:13:51.774Z,29.7
2018-02-18T13:15:00.986Z,29.7
2018-02-18T13:16:09.684Z,29.8
2018-02-18T13:17:18.366Z,29.7
2018-02-18T13:18:27.578Z,29.99
2018-02-18T13:19:36.787Z,29.7
2018-02-18T13:20:45.468Z,29.8
2018-02-18T13:21:54.686Z,29.9
2018-02-18T13:23:03.984Z,30.08
2018-02-18T13:24:12.690Z,29.7
2018-02-18T13:25:21.921Z,30.08
2018-02-18T13:26:30.894Z,30.28
2018-02-18T13:27:39.852Z,30.28
2018-02-18T13:28:49.353Z,30.18
2018-02-18T13:29:58.061Z,30.08
2018-02-18T13:31:07.021Z,30.08
2018-02-18T13:32:16.561Z,29.9
2018-02-18T13:33:25.901Z,30.08
2018-02-18T13:34:35.138Z,30.08
2018-02-18T13:35:44.148Z,30.38
2018-02-18T13:36:53.127Z,30.18
2018-02-18T13:38:02.362Z,29.9
2018-02-18T13:39:11.580Z,29.9
2018-02-18T13:40:20.560Z,29.99
2018-02-18T13:41:29.537Z,30.08
2018-02-18T13:42:38.503Z,30.18
2018-02-18T13:43:47.207Z,30.08
2018-02-18T13:44:56.431Z,30.28
2018-02-18T13:46:05.683Z,30.28
2018-02-18T13:47:14.391Z,30.08
2018-02-18T13:48:23.351Z,30.18
2018-02-18T13:49:32.319Z,30.07
2018-02-18T13:50:41.544Z,30.36
2018-02-18T13:51:51.320Z,30.38
2018-02-18T13:53:00.279Z,30.38
2018-02-18T13:54:09.228Z,30.38
2018-02-18T13:55:18.746Z,30.36
2018-02-18T13:56:27.990Z,30.36
2018-02-18T13:57:37.226Z,30.36
2018-02-18T13:58:46.526Z,30.36
2018-02-18T13:59:55.747Z,30.38
2018-02-18T14:01:05.531Z,30.38
2018-02-18T14:02:15.048Z,30.47
2018-02-18T14:03:24.579Z,30.08
2018-02-18T14:04:33.851Z,30.18
2018-02-18T14:05:43.062Z,30.46
2018-02-18T14:06:52.297Z,30.36
2018-02-18T14:08:01.305Z,30.28
2018-02-18T14:09:10.556Z,30.38
2018-02-18T14:10:19.576Z,30.38
2018-02-18T14:11:29.147Z,30.26
2018-02-18T14:12:37.864Z,30.36
2018-02-18T14:13:47.413Z,30.38
2018-02-18T14:14:56.955Z,30.38
2018-02-18T14:16:05.993Z,30.47
2018-02-18T14:17:15.241Z,30.38
2018-02-18T14:18:24.322Z,30.28
2018-02-18T14:19:33.353Z,29.99
2018-02-18T14:20:42.585Z,29.99
2018-02-18T14:21:51.834Z,29.99
2018-02-18T14:23:00.820Z,29.9
2018-02-18T14:24:09.951Z,29.99
2018-02-18T14:25:19.513Z,29.9
2018-02-18T14:26:28.820Z,29.99
2018-02-18T14:27:38.321Z,30.08
2018-02-18T14:28:47.349Z,30.38
2018-02-18T14:29:56.743Z,30.38
2018-02-18T14:31:06.067Z,30.38
2018-02-18T14:32:14.827Z,30.38
2018-02-18T14:33:24.366Z,30.47
2018-02-18T14:34:33.916Z,30.38
2018-02-18T14:35:42.997Z,30.38
2018-02-18T14:36:52.490Z,30.38
2018-02-18T14:38:02.256Z,30.38
2018-02-18T14:39:11.219Z,30.38
2018-02-18T14:40:20.482Z,30.38
2018-02-18T14:41:29.757Z,30.38
2018-02-18T14:42:38.781Z,30.57
2018-02-18T14:43:47.586Z,30.38
2018-02-18T14:44:57.385Z,30.47
2018-02-18T14:46:06.386Z,30.47
2018-02-18T14:47:15.099Z,30.47
2018-02-18T14:48:24.641Z,30.38
2018-02-18T14:49:33.652Z,30.47
2018-02-18T14:50:42.643Z,30.66
2018-02-18T14:51:51.344Z,30.47
2018-02-18T14:53:00.025Z,30.28
2018-02-18T14:54:09.065Z,30.47